Time;durP1;ratioP1;P1;durP2;ratioP2;P2;SDS_P1;SDS_P2;PMS_P1;PMS_P2;Temp;Humidity;BMP_temperature;BMP_pressure;BME280_temperature;BME280_humidity;BME280_pressure;Samples;Min_cycle;Max_cycle;Signal;HPM_P1;HPM_P2
2023/09/03 00:01:49;;;;;;;36.53;33.03;;;21.40;99.90;;;;;;4995877;28;20365;-70
2023/09/03 00:04:14;;;;;;;35.78;32.28;;;21.40;99.90;;;;;;4995838;28;20038;-70
2023/09/03 00:06:40;;;;;;;35.35;31.88;;;21.40;99.90;;;;;;4996080;28;20093;-70
2023/09/03 00:09:06;;;;;;;34.60;31.20;;;21.40;99.90;;;;;;4995898;28;20538;-70
2023/09/03 00:11:32;;;;;;;35.20;31.70;;;21.40;99.90;;;;;;4995814;28;20018;-70
2023/09/03 00:13:57;;;;;;;35.78;31.88;;;21.40;99.90;;;;;;4995324;28;20396;-70
2023/09/03 00:16:23;;;;;;;32.63;29.45;;;21.40;99.90;;;;;;4995660;28;20026;-70
2023/09/03 00:18:50;;;;;;;34.72;31.38;;;21.40;99.90;;;;;;4995361;28;20038;-70
2023/09/03 00:21:16;;;;;;;34.10;30.70;;;21.40;99.90;;;;;;4995807;28;20090;-70
2023/09/03 00:23:41;;;;;;;34.70;31.27;;;21.30;99.90;;;;;;4995563;28;20026;-70
2023/09/03 00:26:15;;;;;;;33.30;30.00;;;21.30;99.90;;;;;;4995591;28;20030;-70
2023/09/03 00:28:41;;;;;;;32.72;29.38;;;21.30;99.90;;;;;;4995369;28;20084;-70
2023/09/03 00:31:08;;;;;;;31.33;28.13;;;21.30;99.90;;;;;;4995525;28;20026;-70
2023/09/03 00:33:34;;;;;;;32.40;29.10;;;21.30;99.90;;;;;;4995122;28;20023;-70
2023/09/03 00:36:02;;;;;;;32.92;29.63;;;21.30;99.90;;;;;;4995514;28;20475;-70
2023/09/03 00:38:28;;;;;;;32.75;29.33;;;21.20;99.90;;;;;;4995221;28;20022;-70
2023/09/03 00:40:53;;;;;;;31.10;28.10;;;21.20;99.90;;;;;;4995266;28;20030;-70
2023/09/03 00:43:19;;;;;;;31.05;28.05;;;21.20;99.90;;;;;;4994812;28;20535;-70
2023/09/03 00:45:47;;;;;;;31.65;28.65;;;21.20;99.90;;;;;;4995161;28;20114;-70
2023/09/03 00:48:17;;;;;;;31.85;28.70;;;21.20;99.90;;;;;;4995149;28;20472;-70
2023/09/03 00:50:44;;;;;;;32.97;29.67;;;21.20;99.90;;;;;;4995144;28;20026;-70
2023/09/03 00:53:10;;;;;;;30.52;27.50;;;21.10;99.90;;;;;;4995082;28;20026;-70
2023/09/03 00:55:37;;;;;;;31.10;28.00;;;21.10;99.90;;;;;;4994980;28;20125;-71
2023/09/03 00:58:03;;;;;;;30.25;27.35;;;21.10;99.90;;;;;;4994496;28;20479;-70
2023/09/03 01:00:29;;;;;;;29.95;27.05;;;21.10;99.90;;;;;;4994788;28;20033;-69
2023/09/03 01:02:56;;;;;;;30.02;26.85;;;21.00;99.90;;;;;;4994749;28;20022;-70
2023/09/03 01:05:22;;;;;;;29.73;26.63;;;21.00;99.90;;;;;;4994919;28;20386;-70
2023/09/03 01:07:49;;;;;;;29.13;26.42;;;21.00;99.90;;;;;;4994869;28;20037;-70
2023/09/03 01:10:15;;;;;;;30.50;27.23;;;21.00;99.90;;;;;;4994779;28;20033;-70
2023/09/03 01:12:51;;;;;;;29.33;26.17;;;20.90;99.90;;;;;;4993203;28;20476;-70
2023/09/03 01:15:27;;;;;;;29.50;26.80;;;20.90;99.90;;;;;;4994428;28;20066;-70
2023/09/03 01:18:09;;;;;;;29.80;27.05;;;20.90;99.90;;;;;;4994513;28;20443;-70
2023/09/03 01:20:45;;;;;;;29.38;26.58;;;21.00;99.90;;;;;;4994502;28;20022;-70
2023/09/03 01:23:40;;;;;;;28.92;26.13;;;20.90;99.90;;;;;;4994558;28;20050;-70
2023/09/03 01:26:08;;;;;;;28.35;25.65;;;20.90;99.90;;;;;;4994203;28;20026;-70
2023/09/03 01:28:39;;;;;;;26.75;24.35;;;20.90;99.90;;;;;;4994237;28;20072;-70
2023/09/03 01:31:08;;;;;;;28.08;25.42;;;20.90;99.90;;;;;;4993225;28;20483;-70
2023/09/03 01:33:38;;;;;;;26.65;24.17;;;20.90;99.90;;;;;;4994194;28;20033;-70
2023/09/03 01:36:09;;;;;;;26.23;23.70;;;20.90;99.90;;;;;;4994330;28;20034;-70
2023/09/03 01:38:38;;;;;;;26.63;24.17;;;20.80;99.90;;;;;;4994183;28;20084;-70
2023/09/03 01:41:04;;;;;;;26.98;24.15;;;20.80;99.90;;;;;;4992571;28;20491;-70
2023/09/03 01:43:30;;;;;;;26.83;24.15;;;20.80;99.90;;;;;;4992984;28;20035;-70
2023/09/03 01:46:09;;;;;;;26.55;24.05;;;20.80;99.90;;;;;;4992890;28;20490;-70
2023/09/03 01:49:02;;;;;;;27.40;24.60;;;20.80;99.90;;;;;;4993961;28;20447;-70
2023/09/03 01:51:31;;;;;;;27.02;24.27;;;20.80;99.90;;;;;;4992827;28;20034;-70
2023/09/03 01:54:20;;;;;;;26.40;23.90;;;20.70;99.90;;;;;;4990341;28;20030;-70
2023/09/03 01:57:41;;;;;;;26.58;24.17;;;20.70;99.90;;;;;;4973988;28;20157;-70
2023/09/03 02:00:18;;;;;;;26.77;24.10;;;20.70;99.90;;;;;;4970950;28;20488;-70
2023/09/03 02:02:47;;;;;;;25.50;23.10;;;20.70;99.90;;;;;;4974526;28;20026;-70
2023/09/03 02:05:13;;;;;;;26.55;23.73;;;20.60;99.90;;;;;;4974296;28;20039;-70
2023/09/03 02:07:40;;;;;;;24.65;22.48;;;20.60;99.90;;;;;;4973214;28;20107;-70
2023/09/03 02:10:06;;;;;;;25.63;23.23;;;20.60;99.90;;;;;;4972842;28;20027;-70
2023/09/03 02:12:32;;;;;;;24.80;22.52;;;20.60;99.90;;;;;;4974413;28;20030;-70
2023/09/03 02:14:58;;;;;;;25.90;23.40;;;20.60;99.90;;;;;;4989196;28;20050;-70
2023/09/03 02:17:24;;;;;;;25.38;22.70;;;20.50;99.90;;;;;;4974410;28;20026;-70
2023/09/03 02:19:51;;;;;;;25.05;22.50;;;20.50;99.90;;;;;;4992253;28;20034;-70
2023/09/03 02:22:17;;;;;;;22.73;20.67;;;20.50;99.90;;;;;;4993990;28;20034;-70
2023/09/03 02:24:43;;;;;;;24.02;21.83;;;20.50;99.90;;;;;;4993238;28;20033;-70
2023/09/03 02:27:09;;;;;;;25.17;22.58;;;20.50;99.90;;;;;;4993807;28;20105;-70
2023/09/03 02:29:36;;;;;;;25.17;22.65;;;20.50;99.90;;;;;;4992338;28;20058;-70
2023/09/03 02:32:01;;;;;;;24.42;21.92;;;20.50;99.90;;;;;;4993701;28;20018;-70
2023/09/03 02:34:27;;;;;;;23.65;21.38;;;20.50;99.90;;;;;;4993408;28;20034;-70
2023/09/03 02:36:52;;;;;;;23.55;21.40;;;20.40;99.90;;;;;;4993445;28;20029;-70
2023/09/03 02:39:18;;;;;;;22.67;20.17;;;20.50;99.90;;;;;;4993415;28;20030;-70
2023/09/03 02:41:44;;;;;;;23.85;21.38;;;20.40;99.90;;;;;;4992023;28;20022;-70
2023/09/03 02:44:09;;;;;;;24.52;22.33;;;20.40;99.90;;;;;;4992513;28;20031;-70
2023/09/03 02:46:35;;;;;;;24.58;21.58;;;20.40;99.90;;;;;;4992687;28;20033;-70
2023/09/03 02:49:01;;;;;;;23.73;21.30;;;20.40;99.90;;;;;;4993516;28;20023;-70
2023/09/03 02:51:27;;;;;;;21.88;19.60;;;20.40;99.90;;;;;;4993493;28;20480;-70
2023/09/03 02:53:54;;;;;;;22.95;20.70;;;20.30;99.90;;;;;;4993058;28;20026;-70
2023/09/03 02:56:23;;;;;;;24.05;21.85;;;20.30;99.90;;;;;;4993268;28;20494;-70
2023/09/03 02:58:50;;;;;;;22.42;20.42;;;20.30;99.90;;;;;;4993607;28;20073;-70
2023/09/03 03:01:17;;;;;;;23.35;20.88;;;20.30;99.90;;;;;;4993325;28;20037;-70
2023/09/03 03:03:44;;;;;;;22.33;20.02;;;20.30;99.90;;;;;;4991969;28;20034;-70
2023/09/03 03:06:10;;;;;;;22.95;20.63;;;20.20;99.90;;;;;;4995906;28;20430;-70
2023/09/03 03:08:36;;;;;;;22.65;20.42;;;20.20;99.90;;;;;;4996903;28;20081;-70
2023/09/03 03:11:06;;;;;;;21.17;19.30;;;20.20;99.90;;;;;;4996921;28;20034;-70
2023/09/03 03:13:32;;;;;;;21.40;19.40;;;20.20;99.90;;;;;;4997133;28;20026;-70
2023/09/03 03:16:03;;;;;;;21.80;19.40;;;20.20;99.90;;;;;;4995556;28;20098;-69
2023/09/03 03:18:28;;;;;;;21.80;19.80;;;20.20;99.90;;;;;;4996951;28;20361;-70
2023/09/03 03:21:04;;;;;;;21.38;19.45;;;20.10;99.90;;;;;;4996567;28;20533;-70
2023/09/03 03:23:29;;;;;;;22.05;19.85;;;20.10;99.90;;;;;;4996561;28;20026;-70
2023/09/03 03:25:55;;;;;;;21.00;18.67;;;20.20;99.90;;;;;;4996707;28;20387;-70
2023/09/03 03:28:20;;;;;;;20.65;18.77;;;20.10;99.90;;;;;;4996362;28;20030;-70
2023/09/03 03:30:46;;;;;;;21.35;19.17;;;20.10;99.90;;;;;;4996801;28;20037;-69
2023/09/03 03:33:11;;;;;;;23.40;20.58;;;20.10;99.90;;;;;;4996589;28;20026;-70
2023/09/03 03:35:37;;;;;;;21.88;19.77;;;20.10;99.90;;;;;;4996467;28;20563;-70
2023/09/03 03:38:03;;;;;;;21.70;19.50;;;20.10;99.90;;;;;;4996111;28;20026;-70
2023/09/03 03:40:28;;;;;;;21.77;19.65;;;20.00;99.90;;;;;;4996642;28;20030;-70
2023/09/03 03:42:54;;;;;;;22.13;20.08;;;20.00;99.90;;;;;;4996317;28;20399;-70
2023/09/03 03:45:19;;;;;;;21.75;19.58;;;20.00;99.90;;;;;;4996365;28;20034;-70
2023/09/03 03:47:45;;;;;;;21.38;19.33;;;20.00;99.90;;;;;;4996229;28;20023;-70
2023/09/03 03:50:10;;;;;;;23.45;21.27;;;20.00;99.90;;;;;;4996297;28;20030;-70
2023/09/03 03:52:36;;;;;;;21.08;19.17;;;20.00;99.90;;;;;;4994691;28;20050;-70
2023/09/03 03:55:02;;;;;;;20.08;18.30;;;19.90;99.90;;;;;;4996123;28;20034;-70
2023/09/03 03:57:27;;;;;;;21.35;19.25;;;19.90;99.90;;;;;;4996001;28;20530;-70
2023/09/03 03:59:53;;;;;;;21.83;19.73;;;20.00;99.90;;;;;;5011269;28;20421;-70
2023/09/03 04:02:18;;;;;;;21.42;19.30;;;20.00;99.90;;;;;;4994654;28;20126;-70
2023/09/03 04:04:44;;;;;;;20.90;18.88;;;20.00;99.90;;;;;;4995987;28;20030;-70
2023/09/03 04:07:09;;;;;;;22.20;20.20;;;19.90;99.90;;;;;;4995640;28;20491;-70
2023/09/03 04:09:37;;;;;;;21.63;19.70;;;19.90;99.90;;;;;;4995979;28;20388;-70
2023/09/03 04:12:03;;;;;;;22.48;20.10;;;19.90;99.90;;;;;;4995844;28;20030;-70
2023/09/03 04:14:30;;;;;;;20.77;18.98;;;19.90;99.90;;;;;;4995776;28;20018;-70
2023/09/03 04:16:55;;;;;;;23.35;21.05;;;19.80;99.90;;;;;;4995235;28;20023;-70
2023/09/03 04:19:21;;;;;;;23.15;21.15;;;19.80;99.90;;;;;;4995650;28;20502;-70
2023/09/03 04:21:47;;;;;;;23.60;21.40;;;19.80;99.90;;;;;;4995389;28;20037;-70
2023/09/03 04:24:12;;;;;;;23.52;21.15;;;19.70;99.90;;;;;;4995513;28;20029;-70
2023/09/03 04:26:38;;;;;;;21.23;19.13;;;19.70;99.90;;;;;;4995692;28;20113;-69
2023/09/03 04:29:06;;;;;;;24.25;21.95;;;19.70;99.90;;;;;;4995647;28;20031;-70
2023/09/03 04:31:35;;;;;;;22.95;20.85;;;19.70;99.90;;;;;;4994298;28;20081;-70
2023/09/03 04:34:00;;;;;;;23.20;21.00;;;19.70;99.90;;;;;;4995255;28;20058;-70
2023/09/03 04:36:26;;;;;;;22.15;20.10;;;19.70;99.90;;;;;;4995256;28;20451;-70
2023/09/03 04:38:51;;;;;;;24.83;22.35;;;19.70;99.90;;;;;;4995281;28;20380;-70
2023/09/03 04:41:17;;;;;;;24.17;21.88;;;19.70;99.90;;;;;;4995354;28;20031;-70
2023/09/03 04:43:46;;;;;;;25.80;22.13;;;19.70;99.90;;;;;;4995103;28;20058;-69
2023/09/03 04:46:12;;;;;;;23.70;21.30;;;19.70;99.90;;;;;;4995381;28;20038;-70
2023/09/03 04:48:38;;;;;;;24.45;22.08;;;19.70;99.90;;;;;;4995007;28;20027;-70
2023/09/03 04:51:04;;;;;;;23.38;21.15;;;19.60;99.90;;;;;;4995222;28;20030;-70
2023/09/03 04:53:34;;;;;;;24.08;21.67;;;19.70;99.90;;;;;;4995013;28;20019;-70
2023/09/03 04:56:02;;;;;;;24.63;21.73;;;19.60;99.90;;;;;;4995000;28;20543;-70
2023/09/03 04:58:27;;;;;;;23.73;21.40;;;19.60;99.90;;;;;;4994824;28;20479;-70
2023/09/03 05:00:53;;;;;;;24.02;21.73;;;19.60;99.90;;;;;;4995122;28;20057;-70
2023/09/03 05:03:18;;;;;;;24.45;22.15;;;19.50;99.90;;;;;;4994417;28;20471;-70
2023/09/03 05:05:45;;;;;;;24.95;22.55;;;19.60;99.90;;;;;;4994645;28;20025;-70
2023/09/03 05:08:10;;;;;;;24.27;21.80;;;19.60;99.90;;;;;;4994761;28;20057;-70
2023/09/03 05:10:37;;;;;;;24.27;21.90;;;19.60;99.90;;;;;;4994704;28;20062;-70
2023/09/03 05:13:04;;;;;;;24.50;22.30;;;19.50;99.90;;;;;;4994796;28;20408;-70
2023/09/03 05:15:30;;;;;;;24.73;22.23;;;19.50;99.90;;;;;;4994684;28;20109;-70
2023/09/03 05:17:55;;;;;;;23.35;21.15;;;19.50;99.90;;;;;;4994241;28;20104;-69
2023/09/03 05:20:21;;;;;;;26.13;23.65;;;19.50;99.90;;;;;;4994533;28;20082;-69
2023/09/03 05:22:47;;;;;;;25.25;22.77;;;19.50;99.90;;;;;;4994483;28;20035;-69
2023/09/03 05:25:12;;;;;;;24.20;21.88;;;19.40;99.90;;;;;;4991831;28;20018;-69
2023/09/03 05:27:38;;;;;;;24.80;22.50;;;19.50;99.90;;;;;;4993570;28;20076;-69
2023/09/03 05:30:05;;;;;;;25.92;23.42;;;19.40;99.90;;;;;;4989604;28;20392;-69
2023/09/03 05:32:31;;;;;;;24.90;22.42;;;19.40;99.90;;;;;;4993594;28;20021;-70
2023/09/03 05:34:57;;;;;;;25.00;22.70;;;19.40;99.90;;;;;;4993757;28;20125;-70
2023/09/03 05:37:22;;;;;;;25.58;23.10;;;19.30;99.90;;;;;;4994349;28;20026;-70
2023/09/03 05:39:50;;;;;;;26.05;23.27;;;19.30;99.90;;;;;;4993829;28;20037;-70
2023/09/03 05:42:16;;;;;;;25.35;22.73;;;19.40;99.90;;;;;;4994047;28;20031;-70
2023/09/03 05:44:41;;;;;;;25.45;22.80;;;19.40;99.90;;;;;;4993792;28;20095;-70
2023/09/03 05:47:07;;;;;;;25.42;22.73;;;19.30;99.90;;;;;;4992739;28;20467;-69
2023/09/03 05:49:34;;;;;;;25.92;23.45;;;19.30;99.90;;;;;;4991991;28;20038;-69
2023/09/03 05:52:00;;;;;;;24.90;22.67;;;19.30;99.90;;;;;;4994230;28;20042;-70
2023/09/03 05:54:25;;;;;;;25.02;22.75;;;19.30;99.90;;;;;;4992900;28;20026;-70
2023/09/03 05:56:51;;;;;;;24.27;21.98;;;19.40;99.90;;;;;;4993705;28;20472;-70
2023/09/03 05:59:16;;;;;;;25.00;22.88;;;19.40;99.90;;;;;;4993520;28;20031;-70
2023/09/03 06:01:42;;;;;;;24.83;22.33;;;19.40;99.90;;;;;;4993289;28;20547;-70
2023/09/03 06:04:09;;;;;;;26.95;24.65;;;19.30;99.90;;;;;;4993564;28;20030;-70
2023/09/03 06:06:38;;;;;;;28.30;25.33;;;19.40;99.90;;;;;;4993476;28;20380;-70
2023/09/03 06:09:05;;;;;;;27.10;24.35;;;19.40;99.90;;;;;;4993787;28;20019;-69
2023/09/03 06:11:32;;;;;;;27.02;24.48;;;19.40;99.90;;;;;;4993664;28;20447;-70
2023/09/03 06:13:57;;;;;;;28.30;25.80;;;19.40;99.90;;;;;;4993699;28;20030;-70
2023/09/03 06:16:23;;;;;;;30.75;27.85;;;19.40;99.90;;;;;;4993194;28;20357;-70
2023/09/03 06:18:49;;;;;;;28.52;25.73;;;19.40;99.90;;;;;;4993828;28;20042;-70
2023/09/03 06:21:14;;;;;;;28.67;25.90;;;19.40;99.90;;;;;;4993575;28;20026;-70
2023/09/03 06:23:40;;;;;;;29.75;26.70;;;19.40;99.90;;;;;;4993585;28;20026;-70
2023/09/03 06:26:05;;;;;;;30.35;27.63;;;19.40;99.90;;;;;;4992632;28;20117;-70
2023/09/03 06:28:32;;;;;;;28.60;25.98;;;19.40;99.90;;;;;;4993389;28;20034;-70
2023/09/03 06:30:58;;;;;;;27.85;25.33;;;19.50;99.90;;;;;;4993450;28;20031;-70
2023/09/03 06:33:24;;;;;;;30.15;27.50;;;19.40;99.90;;;;;;4992439;28;20057;-70
2023/09/03 06:35:50;;;;;;;29.52;26.92;;;19.50;99.90;;;;;;4993531;28;20038;-70
2023/09/03 06:38:15;;;;;;;29.10;26.15;;;19.50;99.90;;;;;;4993591;28;20019;-70
2023/09/03 06:40:41;;;;;;;26.80;24.40;;;19.50;99.90;;;;;;4997110;28;20026;-70
2023/09/03 06:43:07;;;;;;;29.98;27.17;;;19.50;99.90;;;;;;4996255;28;20501;-69
2023/09/03 06:45:33;;;;;;;29.63;26.63;;;19.50;99.90;;;;;;4995590;28;20030;-69
2023/09/03 06:47:58;;;;;;;26.85;24.45;;;19.50;99.90;;;;;;4995077;28;20113;-69
2023/09/03 06:50:24;;;;;;;28.38;25.65;;;19.50;99.90;;;;;;4995617;28;20113;-70
2023/09/03 06:52:49;;;;;;;27.65;25.15;;;19.60;99.90;;;;;;4996483;28;20391;-70
2023/09/03 06:55:15;;;;;;;27.60;25.00;;;19.60;99.90;;;;;;4991152;28;20073;-69
2023/09/03 06:57:41;;;;;;;27.33;24.83;;;19.60;99.90;;;;;;4994889;28;20022;-70
2023/09/03 07:00:07;;;;;;;27.75;25.13;;;19.60;99.90;;;;;;4992761;28;20506;-69
2023/09/03 07:02:33;;;;;;;27.33;24.73;;;19.60;99.90;;;;;;4995213;28;20023;-70
2023/09/03 07:05:00;;;;;;;27.13;24.52;;;19.70;99.90;;;;;;5000340;28;20549;-69
2023/09/03 07:07:26;;;;;;;25.77;23.38;;;19.70;99.90;;;;;;4993900;28;20054;-69
2023/09/03 07:09:53;;;;;;;26.08;23.67;;;19.80;99.90;;;;;;4991502;28;20531;-71
2023/09/03 07:12:19;;;;;;;25.27;23.02;;;19.80;99.90;;;;;;4995448;28;20026;-72
2023/09/03 07:14:45;;;;;;;26.33;23.73;;;19.80;99.90;;;;;;4986408;28;20587;-70
2023/09/03 07:17:11;;;;;;;24.65;22.45;;;19.90;99.90;;;;;;4987923;28;20037;-71
2023/09/03 07:19:37;;;;;;;25.83;23.33;;;19.90;99.90;;;;;;4975926;28;20030;-72
2023/09/03 07:22:02;;;;;;;25.40;22.92;;;19.90;99.90;;;;;;4976016;28;20424;-71
2023/09/03 07:24:28;;;;;;;24.70;22.27;;;19.90;99.90;;;;;;4976488;28;20042;-72
2023/09/03 07:26:54;;;;;;;24.83;22.33;;;19.90;99.90;;;;;;4956565;28;20030;-71
2023/09/03 07:29:19;;;;;;;25.70;23.25;;;20.00;99.90;;;;;;4970962;28;20038;-72
2023/09/03 07:31:45;;;;;;;25.58;22.88;;;20.00;99.90;;;;;;4975294;28;20031;-71
2023/09/03 07:34:11;;;;;;;24.40;21.85;;;20.10;99.90;;;;;;4975352;28;20034;-70
2023/09/03 07:36:38;;;;;;;23.75;21.50;;;20.10;99.90;;;;;;4974768;28;20058;-70
2023/09/03 07:39:05;;;;;;;23.92;21.63;;;20.20;99.90;;;;;;4969344;28;20088;-72
2023/09/03 07:41:31;;;;;;;23.63;21.25;;;20.20;99.90;;;;;;4972232;28;20041;-72
2023/09/03 07:43:57;;;;;;;22.30;20.00;;;20.30;99.90;;;;;;4957632;28;20023;-71
2023/09/03 07:46:23;;;;;;;21.75;19.55;;;20.30;99.90;;;;;;4975501;28;20026;-73
2023/09/03 07:48:49;;;;;;;22.88;20.55;;;20.30;99.90;;;;;;4972335;28;20031;-73
2023/09/03 07:51:16;;;;;;;23.00;20.80;;;20.40;99.90;;;;;;4969420;28;20026;-72
2023/09/03 07:53:42;;;;;;;21.55;19.42;;;20.50;99.90;;;;;;4973889;28;20019;-72
2023/09/03 07:56:08;;;;;;;19.67;17.75;;;20.50;99.90;;;;;;4975354;28;20034;-72
2023/09/03 07:58:33;;;;;;;19.83;17.92;;;20.50;99.90;;;;;;4976468;28;20611;-72
2023/09/03 08:01:00;;;;;;;20.73;18.63;;;20.60;99.90;;;;;;4976567;28;20547;-72
2023/09/03 08:03:34;;;;;;;21.35;19.02;;;20.60;99.90;;;;;;4976387;28;20026;-72
2023/09/03 08:06:01;;;;;;;20.65;18.63;;;20.70;99.90;;;;;;4976699;28;20041;-73
2023/09/03 08:08:28;;;;;;;20.60;18.52;;;20.70;99.90;;;;;;4976403;28;20025;-73
2023/09/03 08:10:55;;;;;;;25.13;20.98;;;20.70;99.90;;;;;;4957434;28;20054;-73
2023/09/03 08:13:20;;;;;;;23.83;21.58;;;20.80;99.90;;;;;;4975440;28;20030;-71
2023/09/03 08:15:46;;;;;;;25.35;22.67;;;20.80;99.90;;;;;;4975932;28;20039;-72
2023/09/03 08:18:12;;;;;;;24.00;21.48;;;20.80;99.90;;;;;;4980527;28;20471;-73
2023/09/03 08:20:37;;;;;;;25.50;23.00;;;20.90;99.90;;;;;;4995224;28;20022;-72
2023/09/03 08:23:03;;;;;;;23.08;20.85;;;20.90;99.90;;;;;;4995498;28;20117;-72
2023/09/03 08:25:29;;;;;;;21.98;19.92;;;20.90;99.90;;;;;;4995493;28;20026;-73
2023/09/03 08:27:55;;;;;;;21.20;19.10;;;20.90;99.90;;;;;;4973126;28;20037;-72
2023/09/03 08:30:21;;;;;;;22.88;20.73;;;21.00;99.90;;;;;;4958664;28;20031;-74
2023/09/03 08:32:46;;;;;;;19.55;17.77;;;21.00;99.90;;;;;;4975778;28;20391;-73
2023/09/03 08:35:12;;;;;;;21.17;19.15;;;21.10;99.90;;;;;;4974653;28;20050;-72
2023/09/03 08:37:37;;;;;;;21.05;19.13;;;21.10;99.90;;;;;;4975180;28;20050;-72
2023/09/03 08:40:04;;;;;;;19.50;17.50;;;21.10;99.90;;;;;;4972968;28;20042;-73
2023/09/03 08:42:30;;;;;;;18.17;16.48;;;21.20;99.90;;;;;;4973803;28;20027;-72
2023/09/03 08:45:03;;;;;;;18.63;16.83;;;21.20;99.90;;;;;;4971361;28;20016;-73
2023/09/03 08:47:28;;;;;;;;;;;21.20;99.90;;;;;;4975665;28;20035;-71
2023/09/03 08:49:54;;;;;;;16.98;15.38;;;21.20;99.90;;;;;;4985226;28;20145;-72
2023/09/03 08:52:20;;;;;;;15.98;14.48;;;21.20;99.90;;;;;;4973743;28;20506;-72
2023/09/03 08:54:46;;;;;;;14.75;13.35;;;21.30;99.90;;;;;;4972963;28;20051;-71
2023/09/03 08:57:12;;;;;;;13.93;12.73;;;21.20;99.90;;;;;;4974184;28;20431;-72
2023/09/03 08:59:38;;;;;;;14.05;12.70;;;21.30;99.90;;;;;;4975166;28;20022;-71
2023/09/03 09:02:10;;;;;;;14.63;13.32;;;21.30;99.90;;;;;;4956430;28;20113;-72
2023/09/03 09:04:36;;;;;;;;;;;21.30;99.90;;;;;;4972443;28;20029;-72
2023/09/03 09:07:02;;;;;;;14.82;13.45;;;21.40;99.90;;;;;;4972982;28;20008;-72
2023/09/03 09:09:30;;;;;;;15.85;14.25;;;21.40;99.90;;;;;;4957625;28;20078;-72
2023/09/03 09:12:06;;;;;;;15.88;14.32;;;21.40;99.90;;;;;;4972835;28;20034;-72
2023/09/03 09:14:52;;;;;;;14.73;13.23;;;21.40;99.90;;;;;;4975016;28;20045;-73
2023/09/03 09:17:18;;;;;;;15.25;13.68;;;21.50;99.90;;;;;;4974352;28;20054;-72
2023/09/03 09:19:43;;;;;;;13.50;12.00;;;21.50;99.90;;;;;;4990740;28;20026;-72
2023/09/03 09:22:10;;;;;;;11.00;10.00;;;21.50;99.90;;;;;;5004807;28;20034;-72
2023/09/03 09:24:46;;;;;;;10.75;9.32;;;21.50;99.90;;;;;;4990676;28;20033;-72
2023/09/03 09:27:19;;;;;;;9.73;8.73;;;21.50;99.90;;;;;;4993468;28;20084;-72
2023/09/03 09:29:46;;;;;;;12.45;9.55;;;21.60;99.90;;;;;;4990841;28;20050;-72
2023/09/03 09:32:20;;;;;;;11.55;9.38;;;21.60;99.90;;;;;;4994170;28;20105;-73
2023/09/03 09:34:46;;;;;;;12.57;8.93;;;21.60;99.90;;;;;;4989011;28;20400;-73
2023/09/03 09:37:13;;;;;;;9.10;7.97;;;21.60;99.90;;;;;;4988890;28;20014;-71
2023/09/03 09:39:49;;;;;;;8.05;7.25;;;21.60;99.90;;;;;;4989584;28;20475;-71
2023/09/03 09:42:18;;;;;;;8.10;7.18;;;21.70;99.90;;;;;;4992707;28;20476;-71
2023/09/03 09:44:56;;;;;;;9.07;7.57;;;21.70;99.90;;;;;;4992292;28;20054;-73
2023/09/03 09:47:22;;;;;;;9.18;7.07;;;21.70;99.90;;;;;;4989884;28;20030;-73
2023/09/03 09:49:48;;;;;;;8.63;6.55;;;21.70;99.90;;;;;;4991719;28;20045;-73
2023/09/03 09:52:18;;;;;;;7.80;6.65;;;21.70;99.90;;;;;;4992268;28;20460;-73
2023/09/03 09:54:46;;;;;;;7.90;7.10;;;21.70;99.90;;;;;;5002143;28;20030;-72
2023/09/03 09:57:16;;;;;;;7.38;6.68;;;21.80;99.90;;;;;;4992381;28;20050;-73
2023/09/03 09:59:43;;;;;;;7.68;6.45;;;21.80;99.90;;;;;;4992448;28;20052;-73
2023/09/03 10:02:13;;;;;;;7.88;6.07;;;21.80;99.90;;;;;;4992571;28;20033;-73
2023/09/03 10:04:50;;;;;;;13.35;7.05;;;21.80;99.90;;;;;;4995715;28;20022;-74
2023/09/03 10:07:16;;;;;;;10.65;8.02;;;21.90;99.90;;;;;;4992370;28;20034;-74
2023/09/03 10:09:43;;;;;;;11.68;8.40;;;21.90;99.90;;;;;;4990531;28;20085;-76
2023/09/03 10:12:10;;;;;;;14.20;7.82;;;21.90;99.90;;;;;;4990377;28;20094;-73
2023/09/03 10:14:36;;;;;;;13.45;7.45;;;21.90;99.90;;;;;;4987704;28;20038;-74
2023/09/03 10:17:04;;;;;;;9.32;6.22;;;21.90;99.90;;;;;;4990675;28;20057;-73
2023/09/03 10:19:53;;;;;;;10.75;6.20;;;21.90;99.90;;;;;;4988914;28;20414;-74
2023/09/03 10:22:23;;;;;;;8.13;6.00;;;21.90;99.90;;;;;;4985286;28;20076;-73
2023/09/03 10:25:03;;;;;;;6.25;5.00;;;21.90;99.90;;;;;;4991917;28;20023;-72
2023/09/03 10:27:37;;;;;;;7.70;4.97;;;21.90;99.90;;;;;;4987649;28;20113;-72
2023/09/03 10:30:07;;;;;;;9.55;5.82;;;22.00;99.90;;;;;;4990195;28;20543;-74
2023/09/03 10:32:34;;;;;;;7.97;5.40;;;22.00;99.90;;;;;;4989793;28;20081;-72
2023/09/03 10:35:08;;;;;;;17.65;8.38;;;22.00;99.90;;;;;;4989101;28;20034;-74
2023/09/03 10:37:41;;;;;;;6.43;5.13;;;22.00;99.90;;;;;;4986417;28;20019;-72
2023/09/03 10:40:24;;;;;;;6.68;5.40;;;22.10;99.90;;;;;;4978284;28;20042;-75
2023/09/03 10:43:13;;;;;;;8.18;5.75;;;22.10;99.90;;;;;;4984578;28;20109;-80
2023/09/03 10:45:39;;;;;;;6.32;5.13;;;22.10;99.90;;;;;;4985774;28;20030;-72
2023/09/03 10:48:06;;;;;;;5.97;4.95;;;22.10;99.90;;;;;;4984359;28;20176;-74
2023/09/03 10:50:44;;;;;;;6.00;5.05;;;22.10;99.90;;;;;;4991049;28;20036;-75
2023/09/03 10:53:42;;;;;;;6.45;5.60;;;22.20;99.90;;;;;;4980526;28;20184;-74
2023/09/03 10:56:15;;;;;;;7.45;6.68;;;22.20;99.90;;;;;;4989851;28;20037;-75
2023/09/03 10:59:00;;;;;;;8.20;6.22;;;22.20;99.90;;;;;;4983212;28;20022;-73
2023/09/03 11:01:33;;;;;;;7.68;6.82;;;22.20;99.90;;;;;;4986910;28;20414;-75
2023/09/03 11:04:03;;;;;;;7.75;6.55;;;22.20;99.90;;;;;;4988314;28;20112;-73
2023/09/03 11:06:33;;;;;;;9.43;7.40;;;22.30;99.90;;;;;;4987329;28;20019;-77
2023/09/03 11:08:59;;;;;;;8.20;7.40;;;22.30;99.90;;;;;;4983720;28;20057;-76
2023/09/03 11:11:30;;;;;;;7.60;6.78;;;22.30;99.90;;;;;;4987224;28;20062;-75
2023/09/03 11:13:56;;;;;;;9.73;8.07;;;22.30;99.90;;;;;;4984394;28;20756;-73
2023/09/03 11:16:42;;;;;;;10.95;7.18;;;22.30;99.90;;;;;;4984499;28;20022;-75
2023/09/03 11:19:07;;;;;;;8.82;7.90;;;22.30;99.90;;;;;;4978562;28;20038;-74
2023/09/03 11:21:37;;;;;;;7.53;6.25;;;22.30;99.90;;;;;;4971386;28;20023;-75
2023/09/03 11:24:14;;;;;;;7.45;5.28;;;22.30;99.90;;;;;;4969413;28;20031;-78
2023/09/03 11:26:41;;;;;;;6.10;5.50;;;22.40;99.90;;;;;;4964468;28;20028;-80
2023/09/03 11:29:22;;;;;;;7.25;4.50;;;22.40;99.90;;;;;;4976443;28;20033;-79
2023/09/03 11:31:48;;;;;;;5.03;4.00;;;22.40;99.90;;;;;;4974988;28;20034;-72
2023/09/03 11:34:18;;;;;;;4.70;4.30;;;22.40;99.90;;;;;;4986893;28;20061;-73
2023/09/03 11:36:45;;;;;;;5.90;5.00;;;22.40;99.90;;;;;;4971856;28;20474;-75
2023/09/03 11:39:16;;;;;;;7.63;6.00;;;22.40;99.40;;;;;;4978983;28;20030;-77
2023/09/03 11:41:43;;;;;;;6.18;4.90;;;22.50;99.50;;;;;;4975325;28;20081;-75
2023/09/03 11:44:18;;;;;;;6.88;5.07;;;22.50;99.90;;;;;;4972224;28;20023;-78
2023/09/03 11:47:00;;;;;;;5.28;4.78;;;22.50;99.90;;;;;;4972627;28;20023;-76
2023/09/03 11:49:26;;;;;;;7.22;4.47;;;22.50;99.90;;;;;;4972375;28;20396;-72
2023/09/03 11:51:53;;;;;;;7.53;4.60;;;22.50;99.90;;;;;;4971235;28;20027;-72
2023/09/03 11:54:23;;;;;;;6.15;5.30;;;22.50;99.90;;;;;;4982141;28;20048;-76
2023/09/03 11:56:49;;;;;;;5.68;4.55;;;22.50;99.90;;;;;;4975025;28;20037;-74
2023/09/03 11:59:14;;;;;;;7.25;5.78;;;22.50;99.60;;;;;;4970658;28;20038;-73
2023/09/03 12:01:40;;;;;;;7.90;5.80;;;22.60;99.70;;;;;;4976000;28;20607;-72
2023/09/03 12:04:06;;;;;;;7.95;6.32;;;22.60;99.90;;;;;;4977355;28;20472;-75
2023/09/03 12:06:38;;;;;;;6.35;5.50;;;22.60;99.90;;;;;;4983585;28;20104;-73
2023/09/03 12:09:04;;;;;;;6.03;4.97;;;22.60;99.10;;;;;;4981504;28;20034;-73
2023/09/03 12:11:30;;;;;;;6.60;4.78;;;22.70;99.50;;;;;;4975354;28;22059;-75
2023/09/03 12:13:56;;;;;;;6.30;4.85;;;22.60;99.00;;;;;;4980813;28;20042;-72
2023/09/03 12:16:24;;;;;;;5.88;5.00;;;22.70;98.80;;;;;;4975518;28;20033;-72
2023/09/03 12:19:01;;;;;;;5.25;4.15;;;22.70;99.20;;;;;;4986548;28;20069;-74
2023/09/03 12:21:34;;;;;;;3.85;3.40;;;22.70;99.00;;;;;;5002079;28;20045;-76
2023/09/03 12:24:06;;;;;;;4.13;3.72;;;22.70;98.70;;;;;;4993690;28;20030;-74
2023/09/03 12:26:37;;;;;;;4.82;3.80;;;22.70;98.70;;;;;;4995002;28;20049;-75
2023/09/03 12:29:19;;;;;;;3.78;3.47;;;22.70;98.80;;;;;;4987113;28;20040;-72
2023/09/03 12:31:45;;;;;;;2.40;2.20;;;22.70;98.30;;;;;;4989548;28;20455;-72
2023/09/03 12:34:12;;;;;;;4.07;2.58;;;22.80;96.90;;;;;;4989036;28;20023;-73
2023/09/03 12:36:57;;;;;;;4.55;2.75;;;22.80;96.70;;;;;;4993615;28;20043;-72
2023/09/03 12:39:29;;;;;;;5.70;3.08;;;22.80;96.60;;;;;;4990572;28;20054;-72